createdAt,value
2023-06-23T00:01:18.474Z,100.00
2023-06-23T00:03:46.653Z,100.00
2023-06-23T00:06:14.289Z,100.00
2023-06-23T00:08:40.835Z,100.00
2023-06-23T00:11:11.525Z,100.00
2023-06-23T00:13:38.685Z,100.00
2023-06-23T00:16:07.009Z,100.00
2023-06-23T00:18:37.865Z,100.00
2023-06-23T00:21:06.497Z,100.00
2023-06-23T00:23:33.881Z,100.00
2023-06-23T00:26:03.163Z,100.00
2023-06-23T00:28:31.520Z,100.00
2023-06-23T00:30:58.463Z,100.00
2023-06-23T00:33:24.980Z,100.00
2023-06-23T00:35:51.500Z,100.00
2023-06-23T00:38:17.973Z,100.00
2023-06-23T00:40:44.564Z,100.00
2023-06-23T00:43:11.045Z,100.00
2023-06-23T00:45:37.505Z,100.00
2023-06-23T00:48:05.381Z,100.00
2023-06-23T00:50:32.042Z,100.00
2023-06-23T00:52:59.088Z,100.00
2023-06-23T00:55:27.595Z,100.00
2023-06-23T00:57:56.258Z,100.00
2023-06-23T01:00:24.907Z,100.00
2023-06-23T01:02:56.808Z,100.00
2023-06-23T01:05:26.344Z,100.00
2023-06-23T01:08:07.890Z,100.00
2023-06-23T01:10:57.380Z,100.00
2023-06-23T01:13:34.888Z,100.00
2023-06-23T01:17:14.562Z,100.00
2023-06-23T01:20:32.749Z,100.00
2023-06-23T01:23:46.240Z,100.00
2023-06-23T01:41:20.237Z,100.00
2023-06-23T01:43:50.663Z,100.00
2023-06-23T01:46:28.191Z,100.00
2023-06-23T01:48:58.913Z,100.00
2023-06-23T02:08:30.991Z,100.00
2023-06-23T02:11:08.532Z,100.00
2023-06-23T02:32:14.850Z,100.00
2023-06-23T02:34:44.317Z,100.00
2023-06-23T02:37:15.833Z,100.00
2023-06-23T02:39:50.649Z,99.96
2023-06-23T02:43:00.193Z,99.73
2023-06-23T02:45:36.887Z,99.12
2023-06-23T02:48:06.282Z,99.54
2023-06-23T02:50:39.849Z,98.38
2023-06-23T02:57:26.251Z,98.41
2023-06-23T03:00:23.797Z,98.60
2023-06-23T03:03:34.819Z,99.54
2023-06-23T03:06:01.937Z,100.00
2023-06-23T03:08:39.094Z,100.00
2023-06-23T03:11:05.833Z,99.27
2023-06-23T03:13:48.498Z,98.42
2023-06-23T03:16:29.397Z,97.48
2023-06-23T03:19:28.756Z,96.20
2023-06-23T03:22:41.393Z,95.22
2023-06-23T03:25:19.443Z,96.75
2023-06-23T03:28:03.765Z,95.49
2023-06-23T03:30:37.941Z,95.34
2023-06-23T03:33:14.369Z,94.21
2023-06-23T03:35:45.685Z,95.94
2023-06-23T03:38:18.143Z,95.36
2023-06-23T03:40:55.942Z,94.66
2023-06-23T03:43:27.342Z,94.30
2023-06-23T03:46:22.525Z,93.85
2023-06-23T03:48:55.554Z,95.35
2023-06-23T03:51:39.945Z,95.18
2023-06-23T03:54:26.396Z,93.76
2023-06-23T03:57:19.005Z,92.53
2023-06-23T04:37:56.093Z,87.12
2023-06-23T04:40:37.319Z,88.74
2023-06-23T04:43:14.236Z,87.17
2023-06-23T04:46:04.302Z,87.26
2023-06-23T04:51:56.938Z,86.36
2023-06-23T04:54:52.842Z,87.54
2023-06-23T04:57:45.083Z,87.06
2023-06-23T05:03:05.491Z,83.81
2023-06-23T05:11:46.527Z,81.52
2023-06-23T05:23:10.012Z,79.93
2023-06-23T05:25:41.390Z,80.66
2023-06-23T05:28:22.672Z,80.55
2023-06-23T05:30:52.956Z,80.68
2023-06-23T05:33:28.746Z,82.23
2023-06-23T05:36:03.330Z,81.58
2023-06-23T05:45:38.567Z,79.56
2023-06-23T05:48:16.902Z,79.85
2023-06-23T06:04:21.164Z,83.91
2023-06-23T06:06:48.493Z,81.07
2023-06-23T06:09:20.498Z,80.86
2023-06-23T06:15:26.178Z,81.99
2023-06-23T06:18:56.161Z,80.70
2023-06-23T06:22:19.110Z,81.19
2023-06-23T06:28:16.049Z,81.35
2023-06-23T06:50:48.963Z,80.31
2023-06-23T06:53:19.978Z,80.35
2023-06-23T06:55:55.647Z,80.20
2023-06-23T06:58:28.055Z,79.18
2023-06-23T07:00:57.473Z,77.75
2023-06-23T07:03:25.631Z,80.02
2023-06-23T07:05:54.684Z,78.61
2023-06-23T07:08:21.321Z,77.44
2023-06-23T07:10:51.622Z,78.38
2023-06-23T07:13:18.925Z,79.92
2023-06-23T07:15:51.573Z,78.63
2023-06-23T07:18:18.641Z,77.83
2023-06-23T07:21:16.272Z,78.35
2023-06-23T07:23:49.130Z,78.32
2023-06-23T07:26:17.979Z,76.08
2023-06-23T07:28:44.549Z,76.61
2023-06-23T07:31:16.614Z,76.33
2023-06-23T07:33:55.288Z,76.97
2023-06-23T07:36:34.013Z,77.88
2023-06-23T07:39:37.216Z,76.76
2023-06-23T07:42:08.435Z,76.61
2023-06-23T07:44:37.371Z,77.38
2023-06-23T07:47:05.022Z,77.41
2023-06-23T07:49:31.980Z,77.41
2023-06-23T07:52:01.437Z,78.97
2023-06-23T07:54:29.563Z,80.53
2023-06-23T07:56:59.873Z,79.58
2023-06-23T07:59:27.188Z,79.74
2023-06-23T08:01:54.456Z,80.53
2023-06-23T08:04:22.072Z,82.81
2023-06-23T08:06:48.887Z,81.67
2023-06-23T08:09:16.700Z,83.25
2023-06-23T08:11:56.506Z,81.42
2023-06-23T08:14:23.315Z,81.28
2023-06-23T08:16:49.870Z,82.50
2023-06-23T08:19:22.618Z,81.30
2023-06-23T08:21:50.324Z,81.17
2023-06-23T08:24:16.829Z,87.14
2023-06-23T08:26:43.554Z,87.33
2023-06-23T08:29:11.195Z,86.93
2023-06-23T08:31:37.894Z,83.67
2023-06-23T08:34:04.427Z,82.81
2023-06-23T08:36:30.945Z,83.15
2023-06-23T08:38:57.436Z,84.78
2023-06-23T08:41:26.592Z,82.57
2023-06-23T08:43:54.480Z,83.32
2023-06-23T08:46:26.955Z,82.18
2023-06-23T08:48:56.924Z,81.82
2023-06-23T08:51:23.782Z,82.68
2023-06-23T08:53:54.044Z,83.01
2023-06-23T08:56:21.197Z,84.10
2023-06-23T08:58:49.987Z,83.60
2023-06-23T09:01:16.681Z,84.12
2023-06-23T09:03:43.309Z,82.82
2023-06-23T09:10:17.597Z,82.70
2023-06-23T09:13:15.674Z,82.24
2023-06-23T09:16:00.749Z,83.00
2023-06-23T09:18:28.315Z,81.92
2023-06-23T09:20:54.978Z,82.00
2023-06-23T09:23:23.233Z,81.13
2023-06-23T09:25:50.562Z,82.19
2023-06-23T09:28:33.569Z,80.15
2023-06-23T09:31:08.627Z,81.24
2023-06-23T09:33:35.235Z,81.43
2023-06-23T09:36:06.012Z,78.90
2023-06-23T09:38:39.710Z,79.92
2023-06-23T09:41:11.244Z,77.17
2023-06-23T09:43:45.369Z,78.83
2023-06-23T09:46:17.519Z,77.69
2023-06-23T09:48:51.494Z,78.60
2023-06-23T09:51:21.842Z,78.39
2023-06-23T09:53:49.537Z,77.66
2023-06-23T09:56:20.906Z,78.10
2023-06-23T09:58:49.659Z,79.02
2023-06-23T10:01:19.470Z,78.19
2023-06-23T10:03:57.817Z,78.88
2023-06-23T10:06:34.057Z,78.40
2023-06-23T10:09:03.373Z,77.44
2023-06-23T10:11:36.969Z,77.97
2023-06-23T10:16:48.998Z,80.24
2023-06-23T10:19:16.321Z,80.60
2023-06-23T10:21:53.302Z,79.77
2023-06-23T10:24:22.250Z,78.84
2023-06-23T10:26:52.263Z,79.14
2023-06-23T10:29:22.970Z,77.62
2023-06-23T10:32:05.974Z,76.92
2023-06-23T10:34:33.605Z,76.99
2023-06-23T10:37:04.554Z,75.98
2023-06-23T10:39:36.747Z,75.52
2023-06-23T10:42:05.284Z,75.62
2023-06-23T10:44:35.087Z,76.92
2023-06-23T10:47:03.929Z,76.11
2023-06-23T10:53:23.191Z,78.37
2023-06-23T10:56:07.406Z,76.04
2023-06-23T10:58:50.714Z,76.04
2023-06-23T11:01:17.501Z,75.91
2023-06-23T11:03:45.766Z,76.46
2023-06-23T11:06:12.711Z,75.97
2023-06-23T11:08:42.824Z,75.31
2023-06-23T11:11:11.364Z,74.67
2023-06-23T11:13:50.578Z,76.37
2023-06-23T11:16:27.778Z,79.61
2023-06-23T11:19:03.686Z,76.00
2023-06-23T11:21:34.444Z,77.46
2023-06-23T11:24:21.621Z,76.15
2023-06-23T11:27:02.318Z,75.91
2023-06-23T11:29:29.727Z,76.09
2023-06-23T11:32:18.977Z,76.09
2023-06-23T11:34:51.781Z,77.22
2023-06-23T11:37:19.179Z,76.55
2023-06-23T11:39:55.267Z,77.41
2023-06-23T11:42:23.411Z,76.43
2023-06-23T11:44:50.257Z,78.11
2023-06-23T11:47:23.503Z,80.27
2023-06-23T11:49:50.919Z,82.01
2023-06-23T11:52:18.331Z,82.55
2023-06-23T11:54:46.615Z,84.31
2023-06-23T11:57:13.628Z,83.98
2023-06-23T11:59:40.573Z,86.86
2023-06-23T12:02:10.934Z,85.94
2023-06-23T12:04:38.182Z,85.39
2023-06-23T12:07:05.833Z,85.01
2023-06-23T12:09:33.423Z,85.07
2023-06-23T12:12:00.851Z,84.00
2023-06-23T12:14:37.168Z,83.84
2023-06-23T12:17:09.205Z,82.50
2023-06-23T12:19:37.103Z,82.33
2023-06-23T12:22:14.279Z,83.48
2023-06-23T12:24:41.051Z,83.61
2023-06-23T12:27:09.426Z,83.02
2023-06-23T12:33:06.644Z,83.69
2023-06-23T12:35:33.465Z,82.72
2023-06-23T12:38:00.649Z,82.70
2023-06-23T12:40:32.138Z,83.72
2023-06-23T12:42:59.794Z,83.92
2023-06-23T12:45:26.695Z,84.60
2023-06-23T12:47:54.205Z,85.21
2023-06-23T12:50:38.419Z,82.65
2023-06-23T12:53:05.535Z,84.46
2023-06-23T12:55:36.086Z,82.73
2023-06-23T12:58:10.678Z,81.91
2023-06-23T13:04:17.969Z,82.70
2023-06-23T13:06:44.540Z,84.26
2023-06-23T13:09:11.030Z,86.48
2023-06-23T13:11:37.670Z,88.02
2023-06-23T13:14:04.146Z,88.81
2023-06-23T13:16:30.816Z,90.44
2023-06-23T13:18:57.415Z,93.71
2023-06-23T13:21:26.269Z,92.93
2023-06-23T13:23:57.351Z,99.43
2023-06-23T13:26:30.481Z,99.81
2023-06-23T13:29:16.575Z,99.57
2023-06-23T13:31:50.118Z,100.00
2023-06-23T13:34:19.727Z,100.00
2023-06-23T13:36:59.458Z,100.00
2023-06-23T13:39:26.239Z,100.00
2023-06-23T13:41:53.065Z,100.00
2023-06-23T13:44:19.734Z,100.00
2023-06-23T13:46:46.485Z,100.00
2023-06-23T13:49:15.907Z,99.22
2023-06-23T13:51:45.236Z,98.83
2023-06-23T13:54:11.714Z,97.40
2023-06-23T13:56:38.496Z,99.44
2023-06-23T13:59:05.593Z,97.01
2023-06-23T14:01:32.101Z,99.27
2023-06-23T14:03:58.628Z,99.22
2023-06-23T14:06:25.246Z,96.32
2023-06-23T14:08:56.174Z,92.00
2023-06-23T14:11:22.829Z,92.54
2023-06-23T14:13:49.393Z,91.40
2023-06-23T14:16:20.380Z,89.01
2023-06-23T14:18:47.320Z,90.57
2023-06-23T14:21:21.170Z,89.48
2023-06-23T14:23:47.880Z,89.09
2023-06-23T14:26:14.499Z,88.53
2023-06-23T14:28:44.152Z,87.33
2023-06-23T14:31:13.410Z,86.52
2023-06-23T14:33:39.982Z,86.59
2023-06-23T14:36:06.539Z,85.23
2023-06-23T14:38:35.246Z,86.52
2023-06-23T14:41:02.802Z,84.82
2023-06-23T14:43:29.592Z,84.74
2023-06-23T14:45:56.313Z,83.84
2023-06-23T14:48:29.641Z,82.96
2023-06-23T14:50:57.477Z,82.13
2023-06-23T14:53:27.197Z,81.50
2023-06-23T14:55:54.603Z,82.48
2023-06-23T14:58:26.279Z,82.13
2023-06-23T15:00:52.776Z,81.59
2023-06-23T15:03:22.112Z,82.92
2023-06-23T15:05:51.518Z,82.31
2023-06-23T15:08:19.182Z,80.20
2023-06-23T15:10:46.406Z,81.94
2023-06-23T15:13:19.298Z,81.50
2023-06-23T15:15:49.864Z,80.56
2023-06-23T15:18:16.441Z,79.88
2023-06-23T15:20:45.282Z,80.44
2023-06-23T15:23:11.915Z,80.27
2023-06-23T15:25:38.633Z,80.19
2023-06-23T15:28:09.423Z,80.11
2023-06-23T15:30:36.248Z,81.47
2023-06-23T15:33:03.770Z,83.32
2023-06-23T15:35:30.765Z,82.70
2023-06-23T15:37:58.761Z,82.60
2023-06-23T15:40:25.567Z,83.81
2023-06-23T15:42:52.813Z,80.04
2023-06-23T15:45:19.894Z,80.92
2023-06-23T15:47:46.583Z,79.82
2023-06-23T15:50:13.529Z,79.76
2023-06-23T15:52:40.304Z,79.13
2023-06-23T15:55:07.441Z,78.67
2023-06-23T15:57:34.196Z,79.64
2023-06-23T16:00:00.778Z,78.93
2023-06-23T16:02:28.005Z,79.33
2023-06-23T16:04:54.727Z,79.22
2023-06-23T16:07:21.479Z,79.67
2023-06-23T16:09:48.129Z,79.15
2023-06-23T16:12:14.962Z,78.90
2023-06-23T16:14:45.160Z,79.06
2023-06-23T16:17:13.805Z,79.79
2023-06-23T16:19:41.197Z,81.05
2023-06-23T16:22:07.873Z,81.20
2023-06-23T16:24:34.357Z,81.41
2023-06-23T16:27:00.988Z,81.50
2023-06-23T16:29:27.555Z,81.83
2023-06-23T16:31:54.069Z,85.35
2023-06-23T16:34:22.858Z,90.46
2023-06-23T16:36:49.356Z,92.92
2023-06-23T16:39:16.139Z,95.97
2023-06-23T16:41:46.109Z,98.23
2023-06-23T16:44:15.631Z,100.00
2023-06-23T16:46:42.352Z,100.00
2023-06-23T16:49:08.926Z,100.00
2023-06-23T16:51:41.393Z,100.00
2023-06-23T16:54:09.310Z,100.00
2023-06-23T16:56:36.901Z,100.00
2023-06-23T16:59:07.053Z,100.00
2023-06-23T17:01:36.936Z,100.00
2023-06-23T17:04:06.859Z,100.00
2023-06-23T17:06:36.241Z,100.00
2023-06-23T17:09:03.092Z,100.00
2023-06-23T17:11:37.563Z,100.00
2023-06-23T17:14:04.229Z,100.00
2023-06-23T17:16:38.076Z,100.00
2023-06-23T17:22:00.276Z,100.00
2023-06-23T17:24:32.736Z,100.00
2023-06-23T17:27:00.047Z,100.00
2023-06-23T17:29:28.973Z,100.00
2023-06-23T17:31:56.060Z,99.49
2023-06-23T17:34:27.832Z,99.89
2023-06-23T17:37:46.467Z,97.72
2023-06-23T17:40:16.627Z,97.48
2023-06-23T17:42:43.253Z,99.11
2023-06-23T17:57:04.928Z,98.97
2023-06-23T18:16:18.127Z,97.85
2023-06-23T18:22:43.513Z,97.59
2023-06-23T18:25:13.953Z,97.23
2023-06-23T18:27:47.528Z,97.75
2023-06-23T18:30:19.799Z,97.70
2023-06-23T18:32:46.930Z,97.01
2023-06-23T18:35:17.749Z,96.49
2023-06-23T18:37:49.164Z,96.80
2023-06-23T18:40:17.840Z,97.24
2023-06-23T18:42:51.263Z,97.21
2023-06-23T18:45:21.632Z,98.20
2023-06-23T18:47:48.351Z,98.26
2023-06-23T18:50:15.100Z,98.42
2023-06-23T18:52:41.956Z,97.14
2023-06-23T18:55:14.539Z,97.71
2023-06-23T18:57:47.878Z,99.02
2023-06-23T19:00:15.531Z,98.41
2023-06-23T19:02:45.288Z,98.68
2023-06-23T19:05:13.223Z,99.71
2023-06-23T19:07:45.603Z,100.00
2023-06-23T19:10:12.564Z,98.86
2023-06-23T19:12:39.367Z,99.10
2023-06-23T19:15:06.798Z,99.55
2023-06-23T19:17:37.114Z,99.18
2023-06-23T19:20:05.386Z,98.34
2023-06-23T19:22:32.384Z,99.63
2023-06-23T19:24:59.121Z,99.68
2023-06-23T19:27:25.840Z,100.00
2023-06-23T19:29:52.603Z,100.00
2023-06-23T19:32:31.536Z,100.00
2023-06-23T19:34:58.414Z,100.00
2023-06-23T19:37:27.820Z,100.00
2023-06-23T19:40:00.002Z,100.00
2023-06-23T19:42:30.905Z,100.00
2023-06-23T19:44:57.600Z,100.00
2023-06-23T19:47:24.524Z,100.00
2023-06-23T19:49:51.152Z,100.00
2023-06-23T19:52:17.684Z,100.00
2023-06-23T19:54:44.325Z,100.00
2023-06-23T19:57:10.808Z,100.00
2023-06-23T19:59:37.316Z,100.00
2023-06-23T20:02:04.354Z,100.00
2023-06-23T20:04:30.804Z,100.00
2023-06-23T20:06:57.338Z,100.00
2023-06-23T20:09:23.863Z,100.00
2023-06-23T20:11:50.344Z,100.00
2023-06-23T20:14:16.791Z,100.00
2023-06-23T20:16:43.314Z,100.00
2023-06-23T20:19:10.676Z,100.00
2023-06-23T20:21:37.134Z,100.00
2023-06-23T20:24:03.733Z,100.00
2023-06-23T20:26:30.213Z,100.00
2023-06-23T20:28:56.682Z,100.00
2023-06-23T20:31:23.258Z,100.00
2023-06-23T20:33:49.772Z,100.00
2023-06-23T20:36:16.273Z,100.00
2023-06-23T20:38:42.755Z,100.00
2023-06-23T20:41:09.202Z,100.00
2023-06-23T20:43:35.674Z,100.00
2023-06-23T20:46:02.378Z,100.00
2023-06-23T20:48:29.034Z,100.00
2023-06-23T20:50:56.484Z,100.00
2023-06-23T20:53:22.942Z,100.00
2023-06-23T20:55:49.426Z,100.00
2023-06-23T20:58:16.097Z,100.00
2023-06-23T21:00:42.669Z,100.00
2023-06-23T21:03:09.297Z,100.00
2023-06-23T21:05:36.250Z,100.00
2023-06-23T21:08:02.724Z,100.00
2023-06-23T21:10:29.528Z,100.00
2023-06-23T21:12:56.622Z,100.00
2023-06-23T21:15:26.203Z,100.00
2023-06-23T21:17:56.150Z,100.00
2023-06-23T21:20:24.333Z,100.00
2023-06-23T21:22:51.443Z,100.00
2023-06-23T21:25:21.309Z,100.00
2023-06-23T21:27:48.865Z,100.00
2023-06-23T21:30:16.297Z,100.00
2023-06-23T21:32:43.435Z,100.00
2023-06-23T21:35:12.099Z,100.00
2023-06-23T21:37:39.540Z,100.00
2023-06-23T21:40:10.586Z,100.00
2023-06-23T21:42:37.038Z,100.00
2023-06-23T21:45:03.748Z,100.00
2023-06-23T21:47:31.780Z,100.00
2023-06-23T21:49:58.331Z,100.00
2023-06-23T21:52:24.773Z,100.00
2023-06-23T21:54:51.292Z,100.00
2023-06-23T21:57:17.828Z,100.00
2023-06-23T21:59:44.876Z,100.00
2023-06-23T22:02:11.614Z,100.00
2023-06-23T22:04:38.171Z,100.00
2023-06-23T22:07:04.801Z,100.00
2023-06-23T22:09:31.695Z,100.00
2023-06-23T22:11:58.165Z,100.00
2023-06-23T22:14:26.379Z,100.00
2023-06-23T22:16:56.655Z,100.00
2023-06-23T22:19:23.947Z,100.00
2023-06-23T22:21:50.915Z,100.00
2023-06-23T22:24:18.171Z,100.00
2023-06-23T22:26:44.943Z,100.00
2023-06-23T22:29:11.452Z,100.00
2023-06-23T22:31:39.815Z,100.00
2023-06-23T22:34:06.302Z,100.00
2023-06-23T22:36:36.649Z,100.00
2023-06-23T22:39:04.347Z,100.00
2023-06-23T22:41:31.234Z,100.00
2023-06-23T22:43:57.784Z,100.00
2023-06-23T22:46:24.387Z,100.00
2023-06-23T22:48:51.193Z,100.00
2023-06-23T22:51:17.654Z,100.00
2023-06-23T22:53:44.123Z,100.00
2023-06-23T22:56:11.004Z,100.00
2023-06-23T22:58:37.475Z,100.00
2023-06-23T23:01:04.077Z,100.00
2023-06-23T23:03:31.080Z,100.00
2023-06-23T23:05:58.153Z,100.00
2023-06-23T23:08:24.636Z,100.00
2023-06-23T23:10:51.355Z,100.00
2023-06-23T23:13:17.916Z,100.00
2023-06-23T23:15:44.752Z,100.00
2023-06-23T23:18:11.256Z,100.00
2023-06-23T23:20:38.566Z,100.00
2023-06-23T23:23:05.203Z,100.00
2023-06-23T23:25:32.641Z,100.00
2023-06-23T23:28:02.954Z,100.00
2023-06-23T23:30:29.795Z,100.00
2023-06-23T23:32:56.347Z,100.00
2023-06-23T23:35:22.909Z,100.00
2023-06-23T23:37:49.501Z,100.00
2023-06-23T23:40:16.100Z,100.00
2023-06-23T23:42:44.110Z,100.00
2023-06-23T23:45:14.455Z,100.00
2023-06-23T23:47:46.197Z,100.00
2023-06-23T23:50:12.718Z,100.00
2023-06-23T23:52:39.263Z,100.00
2023-06-23T23:55:06.119Z,100.00
2023-06-23T23:57:33.102Z,100.00
2023-06-23T23:59:59.646Z,100.00
